Time;durP1;ratioP1;P1;durP2;ratioP2;P2;SDS_P1;SDS_P2;PMS_P1;PMS_P2;Temp;Humidity;BMP_temperature;BMP_pressure;BME280_temperature;BME280_humidity;BME280_pressure;Samples;Min_cycle;Max_cycle;Signal;HPM_P1;HPM_P2
2023/09/27 00:02:07;;;;;;;;;;;16.00;99.90;;;;;;5055729;28;19912;-73
2023/09/27 00:04:34;;;;;;;;;;;16.00;99.90;;;;;;5055595;28;20015;-74
2023/09/27 00:06:59;;;;;;;;;;;16.00;99.90;;;;;;5055796;28;19913;-74
2023/09/27 00:09:25;;;;;;;;;;;15.90;99.90;;;;;;5057860;28;19908;-74
2023/09/27 00:11:51;;;;;;;;;;;15.90;99.90;;;;;;5059210;28;19916;-73
2023/09/27 00:14:16;;;;;;;;;;;15.90;99.90;;;;;;5059188;28;19913;-74
2023/09/27 00:16:42;;;;;;;;;;;15.90;99.90;;;;;;5077660;28;19917;-73
2023/09/27 00:19:08;;;;;;;;;;;15.80;99.90;;;;;;5058839;28;19916;-74
2023/09/27 00:21:33;;;;;;;;;;;15.80;99.90;;;;;;5057429;28;19912;-73
2023/09/27 00:23:59;;;;;;;;;;;15.80;99.90;;;;;;5058966;28;19917;-74
2023/09/27 00:26:25;;;;;;;;;;;15.80;99.90;;;;;;5058545;28;19939;-74
2023/09/27 00:28:50;;;;;;;;;;;15.80;99.90;;;;;;5058858;28;19936;-73
2023/09/27 00:31:16;;;;;;;;;;;15.80;99.90;;;;;;5057438;28;20373;-73
2023/09/27 00:33:41;;;;;;;;;;;15.70;99.90;;;;;;5057462;28;19909;-73
2023/09/27 00:36:07;;;;;;;;;;;15.70;99.90;;;;;;5058498;28;19959;-74
2023/09/27 00:38:32;;;;;;;;;;;15.70;99.90;;;;;;5058682;28;19913;-74
2023/09/27 00:40:58;;;;;;;;;;;15.70;99.90;;;;;;5058439;28;19909;-74
2023/09/27 00:43:26;;;;;;;;;;;15.60;99.90;;;;;;5058491;28;19908;-74
2023/09/27 00:45:53;;;;;;;;;;;15.60;99.90;;;;;;5058445;28;19908;-74
2023/09/27 00:48:19;;;;;;;;;;;15.60;99.90;;;;;;5058516;28;19938;-73
2023/09/27 00:50:44;;;;;;;;;;;15.50;99.90;;;;;;5058286;28;19913;-73
2023/09/27 00:53:10;;;;;;;;;;;15.50;99.90;;;;;;5057114;28;19912;-73
2023/09/27 00:55:35;;;;;;;;;;;15.50;99.90;;;;;;5058290;28;19913;-74
2023/09/27 00:58:01;;;;;;;;;;;15.50;99.90;;;;;;5058378;28;19909;-73
2023/09/27 01:00:27;;;;;;;;;;;15.50;99.90;;;;;;5058303;28;20380;-74
2023/09/27 01:02:53;;;;;;;;;;;15.50;99.90;;;;;;5058145;28;19986;-73
2023/09/27 01:05:19;;;;;;;;;;;15.50;99.90;;;;;;5058038;28;19912;-74
2023/09/27 01:07:44;;;;;;;;;;;15.40;99.90;;;;;;5058014;28;20452;-74
2023/09/27 01:10:10;;;;;;;;;;;15.40;99.90;;;;;;5058022;28;19944;-74
2023/09/27 01:12:36;;;;;;;;;;;15.40;99.90;;;;;;5057936;28;19962;-73
2023/09/27 01:15:02;;;;;;;;;;;15.40;99.90;;;;;;5056654;28;19955;-73
2023/09/27 01:17:27;;;;;;;;;;;15.40;99.90;;;;;;5081740;28;19910;-73
2023/09/27 01:19:53;;;;;;;;;;;15.40;99.90;;;;;;5051791;28;19916;-74
2023/09/27 01:22:18;;;;;;;;;;;15.30;99.90;;;;;;5056494;28;19939;-74
2023/09/27 01:24:44;;;;;;;;;;;15.30;99.90;;;;;;5057822;28;19913;-74
2023/09/27 01:27:10;;;;;;;;;;;15.30;99.90;;;;;;5057405;28;19925;-73
2023/09/27 01:29:35;;;;;;;;;;;15.30;99.90;;;;;;5057719;28;19916;-74
2023/09/27 01:32:01;;;;;;;;;;;15.30;99.90;;;;;;5056563;28;19912;-73
2023/09/27 01:34:26;;;;;;;;;;;15.20;99.90;;;;;;5057547;28;19909;-74
2023/09/27 01:36:53;;;;;;;;;;;15.20;99.90;;;;;;5057442;28;19977;-73
2023/09/27 01:39:19;;;;;;;;;;;15.20;99.90;;;;;;5056155;28;19916;-73
2023/09/27 01:41:44;;;;;;;;;;;15.20;99.90;;;;;;5057285;28;20392;-73
2023/09/27 01:44:10;;;;;;;;;;;15.20;99.90;;;;;;5057307;28;20403;-73
2023/09/27 01:46:36;;;;;;;;;;;15.10;99.90;;;;;;5057421;28;19913;-73
2023/09/27 01:49:01;;;;;;;;;;;15.10;99.90;;;;;;5055997;28;19913;-74
2023/09/27 01:51:27;;;;;;;;;;;15.10;99.90;;;;;;5055859;28;19936;-73
2023/09/27 01:53:52;;;;;;;;;;;15.10;99.90;;;;;;5057217;28;20004;-73
2023/09/27 01:56:18;;;;;;;;;;;15.00;99.90;;;;;;5055597;28;19997;-74
2023/09/27 01:58:43;;;;;;;;;;;15.00;99.90;;;;;;5057119;28;20010;-73
2023/09/27 02:01:09;;;;;;;;;;;15.00;99.90;;;;;;5057128;28;19956;-74
2023/09/27 02:03:34;;;;;;;;;;;15.00;99.90;;;;;;5057043;28;20004;-74
2023/09/27 02:06:00;;;;;;;;;;;15.00;99.90;;;;;;5056929;28;19948;-74
2023/09/27 02:08:25;;;;;;;;;;;15.00;99.90;;;;;;5056971;28;19913;-73
2023/09/27 02:10:51;;;;;;;;;;;15.00;99.90;;;;;;5056744;28;20389;-73
2023/09/27 02:13:17;;;;;;;;;;;14.90;99.90;;;;;;5056871;28;19962;-74
2023/09/27 02:15:42;;;;;;;;;;;14.80;99.90;;;;;;5080744;28;19917;-73
2023/09/27 02:18:08;;;;;;;;;;;14.90;99.90;;;;;;5051600;28;20269;-74
2023/09/27 02:20:33;;;;;;;;;;;14.80;99.90;;;;;;5055207;28;20289;-74
2023/09/27 02:22:59;;;;;;;;;;;14.80;99.90;;;;;;5056710;28;19912;-74
2023/09/27 02:25:25;;;;;;;;;;;14.80;99.90;;;;;;5056648;28;19909;-73
2023/09/27 02:27:51;;;;;;;;;;;14.80;99.90;;;;;;5056335;28;19960;-73
2023/09/27 02:30:16;;;;;;;;;;;14.80;99.90;;;;;;5056480;28;19935;-73
2023/09/27 02:32:42;;;;;;;;;;;14.70;99.90;;;;;;5055235;28;19909;-73
2023/09/27 02:35:13;;;;;;;;;;;14.70;99.90;;;;;;5055088;28;19919;-73
2023/09/27 02:37:39;;;;;;;;;;;14.70;99.90;;;;;;5056478;28;19999;-73
2023/09/27 02:40:11;;;;;;;;;;;14.60;99.90;;;;;;5056451;28;19971;-73
2023/09/27 02:42:40;;;;;;;;;;;14.60;99.90;;;;;;5056237;28;19913;-73
2023/09/27 02:45:09;;;;;;;;;;;14.60;99.90;;;;;;5056238;28;19909;-73
2023/09/27 02:47:35;;;;;;;;;;;14.50;99.90;;;;;;5056288;28;19909;-73
2023/09/27 02:50:02;;;;;;;;;;;14.60;99.90;;;;;;5056142;28;20106;-73
2023/09/27 02:52:27;;;;;;;;;;;14.50;99.90;;;;;;5056237;28;20327;-73
2023/09/27 02:54:53;;;;;;;;;;;14.50;99.90;;;;;;5078660;28;20012;-73
2023/09/27 02:57:19;;;;;;;;;;;14.50;99.90;;;;;;5070989;28;19913;-74
2023/09/27 02:59:45;;;;;;;;;;;14.40;99.90;;;;;;5056289;28;19913;-73
2023/09/27 03:02:11;;;;;;;;;;;14.40;99.90;;;;;;5056146;28;19915;-74
2023/09/27 03:04:36;;;;;;;;;;;14.30;99.90;;;;;;5056031;28;20042;-73
2023/09/27 03:07:02;;;;;;;;;;;14.30;99.90;;;;;;5056009;28;19948;-74
2023/09/27 03:09:27;;;;;;;;;;;14.30;99.90;;;;;;5054800;28;19999;-74
2023/09/27 03:11:53;;;;;;;;;;;14.20;99.90;;;;;;5054448;28;20012;-73
2023/09/27 03:14:18;;;;;;;;;;;14.20;99.90;;;;;;5056073;28;19963;-73
2023/09/27 03:16:44;;;;;;;;;;;14.10;99.90;;;;;;5055885;28;19917;-74
2023/09/27 03:19:10;;;;;;;;;;;14.10;99.90;;;;;;5054922;28;19909;-74
2023/09/27 03:21:35;;;;;;;;;;;14.00;99.90;;;;;;5055731;28;19916;-74
2023/09/27 03:24:01;;;;;;;;;;;14.00;99.90;;;;;;5055972;28;19916;-74
2023/09/27 03:26:27;;;;;;;;;;;14.00;99.90;;;;;;5055495;28;20416;-74
2023/09/27 03:28:52;;;;;;;;;;;14.00;99.90;;;;;;5055841;28;19909;-73
2023/09/27 03:31:18;;;;;;;;;;;14.00;99.90;;;;;;5054513;28;19913;-74
2023/09/27 03:33:44;;;;;;;;;;;13.90;99.90;;;;;;5054577;28;19908;-74
2023/09/27 03:36:09;;;;;;;;;;;13.90;99.90;;;;;;5055617;28;19924;-73
2023/09/27 03:38:36;;;;;;;;;;;13.90;99.90;;;;;;5055835;28;20346;-74
2023/09/27 03:41:02;;;;;;;;;;;13.90;99.90;;;;;;5055565;28;19923;-74
2023/09/27 03:43:27;;;;;;;;;;;13.90;99.90;;;;;;5057166;28;20361;-73
2023/09/27 03:45:53;;;;;;;;;;;13.90;99.90;;;;;;5059682;28;20447;-74
2023/09/27 03:48:19;;;;;;;;;;;13.90;99.90;;;;;;5059721;28;20384;-74
2023/09/27 03:50:45;;;;;;;;;;;13.90;99.90;;;;;;5059469;28;19908;-74
2023/09/27 03:53:10;;;;;;;;;;;13.90;99.90;;;;;;5059581;28;19919;-73
2023/09/27 03:55:36;;;;;;;;;;;13.90;99.90;;;;;;5057796;28;19913;-73
2023/09/27 03:58:02;;;;;;;;;;;13.90;99.90;;;;;;5058111;28;19909;-73
2023/09/27 04:00:28;;;;;;;;;;;13.80;99.90;;;;;;5058053;28;20341;-73
2023/09/27 04:02:54;;;;;;;;;;;13.80;99.90;;;;;;5058023;28;19935;-73
2023/09/27 04:05:22;;;;;;;;;;;13.80;99.90;;;;;;5059199;28;19917;-74
2023/09/27 04:07:48;;;;;;;;;;;13.70;99.90;;;;;;5057982;28;19909;-74
2023/09/27 04:10:15;;;;;;;;;;;13.70;99.90;;;;;;5059219;28;20371;-74
2023/09/27 04:12:41;;;;;;;;;;;13.70;99.90;;;;;;5058985;28;19920;-73
2023/09/27 04:15:08;;;;;;;;;;;13.60;99.90;;;;;;5059111;28;19913;-73
2023/09/27 04:17:35;;;;;;;;;;;13.60;99.90;;;;;;5057737;28;19916;-73
2023/09/27 04:20:00;;;;;;;;;;;13.60;99.90;;;;;;5058769;28;19913;-73
2023/09/27 04:22:26;;;;;;;;;;;13.50;99.90;;;;;;5059064;28;20020;-73
2023/09/27 04:24:52;;;;;;;;;;;13.50;99.90;;;;;;5058908;28;19913;-74
2023/09/27 04:27:18;;;;;;;;;;;13.40;99.90;;;;;;5058668;28;19921;-73
2023/09/27 04:29:44;;;;;;;;;;;13.40;99.90;;;;;;5058846;28;19909;-73
2023/09/27 04:32:09;;;;;;;;;;;13.40;99.90;;;;;;5058843;28;19917;-74
2023/09/27 04:34:35;;;;;;;;;;;13.30;99.90;;;;;;5058738;28;19913;-73
2023/09/27 04:37:00;;;;;;;;;;;13.30;99.90;;;;;;5057126;28;19956;-73
2023/09/27 04:39:30;;;;;;;;;;;13.30;99.90;;;;;;5058617;28;19955;-74
2023/09/27 04:41:56;;;;;;;;;;;13.30;99.90;;;;;;5058435;28;19909;-73
2023/09/27 04:44:22;;;;;;;;;;;13.20;99.90;;;;;;5058455;28;19935;-74
2023/09/27 04:46:47;;;;;;;;;;;13.20;99.90;;;;;;5058589;28;19987;-74
2023/09/27 04:49:13;;;;;;;;;;;13.20;99.90;;;;;;5058509;28;20000;-73
2023/09/27 04:51:38;;;;;;;;;;;13.20;99.90;;;;;;5058448;28;19952;-74
2023/09/27 04:54:04;;;;;;;;;;;13.20;99.90;;;;;;5057076;28;19995;-73
2023/09/27 04:56:30;;;;;;;;;;;13.20;99.90;;;;;;5058162;28;20296;-73
2023/09/27 04:58:56;;;;;;;;;;;13.20;99.90;;;;;;5058254;28;20034;-74
2023/09/27 05:01:22;;;;;;;;;;;13.10;99.90;;;;;;5058373;28;19909;-73
2023/09/27 05:03:49;;;;;;;;;;;13.20;99.90;;;;;;5058221;28;20396;-74
2023/09/27 05:06:14;;;;;;;;;;;13.20;99.90;;;;;;5058096;28;19916;-73
2023/09/27 05:08:40;;;;;;;;;;;13.10;99.90;;;;;;5058128;28;19909;-74
2023/09/27 05:11:06;;;;;;;;;;;13.10;99.90;;;;;;5058012;28;19913;-74
2023/09/27 05:13:32;;;;;;;;;;;13.10;99.90;;;;;;5056700;28;19920;-73
2023/09/27 05:15:57;;;;;;;;;;;13.10;99.90;;;;;;5058016;28;19936;-74
2023/09/27 05:18:23;;;;;;;;;;;13.10;99.90;;;;;;5057931;28;19912;-74
2023/09/27 05:20:48;;;;;;;;;;;13.00;99.90;;;;;;5056343;28;19913;-73
2023/09/27 05:23:14;;;;;;;;;;;13.00;99.90;;;;;;5057754;28;19916;-73
2023/09/27 05:25:40;;;;;;;;;;;13.00;99.90;;;;;;5056296;28;19920;-74
2023/09/27 05:28:06;;;;;;;;;;;13.10;99.90;;;;;;5057610;28;19924;-74
2023/09/27 05:30:31;;;;;;;;;;;13.10;99.90;;;;;;5057756;28;20393;-74
2023/09/27 05:32:57;;;;;;;;;;;13.00;99.90;;;;;;5056498;28;20088;-74
2023/09/27 05:35:23;;;;;;;;;;;13.00;99.90;;;;;;5057536;28;19920;-73
2023/09/27 05:37:49;;;;;;;;;;;13.00;99.90;;;;;;5057528;28;20007;-74
2023/09/27 05:40:14;;;;;;;;;;;13.00;99.90;;;;;;5056207;28;19963;-74
2023/09/27 05:42:40;;;;;;;;;;;12.90;99.90;;;;;;5057295;28;19913;-74
2023/09/27 05:45:07;;;;;;;;;;;12.90;99.90;;;;;;5057370;28;19909;-73
2023/09/27 05:47:33;;;;;;;;;;;12.80;99.90;;;;;;5056039;28;19936;-73
2023/09/27 05:49:58;;;;;;;;;;;12.80;99.90;;;;;;5057335;28;19920;-74
2023/09/27 05:52:25;;;;;;;;;;;12.80;99.90;;;;;;5057245;28;20004;-73
2023/09/27 05:54:51;;;;;;;;;;;12.80;99.90;;;;;;5055846;28;19916;-74
2023/09/27 05:57:17;;;;;;;;;;;12.80;99.90;;;;;;5057253;28;19916;-74
2023/09/27 05:59:44;;;;;;;;;;;12.80;99.90;;;;;;5057226;28;19913;-73
2023/09/27 06:02:16;;;;;;;;;;;12.70;99.90;;;;;;5055998;28;19990;-73
2023/09/27 06:04:43;;;;;;;;;;;12.70;99.90;;;;;;5056698;28;20423;-73
2023/09/27 06:07:11;;;;;;;;;;;12.70;99.90;;;;;;5056944;28;19909;-73
2023/09/27 06:09:36;;;;;;;;;;;12.70;99.90;;;;;;5057069;28;19956;-73
2023/09/27 06:12:02;;;;;;;;;;;12.70;99.90;;;;;;5056706;28;19909;-73
2023/09/27 06:14:27;;;;;;;;;;;12.80;99.90;;;;;;5055619;28;19920;-73
2023/09/27 06:16:53;;;;;;;;;;;12.70;99.90;;;;;;5056789;28;19966;-73
2023/09/27 06:19:21;;;;;;;;;;;12.80;99.90;;;;;;5055515;28;19913;-73
2023/09/27 06:21:46;;;;;;;;;;;12.80;99.90;;;;;;5056630;28;19955;-73
2023/09/27 06:24:12;;;;;;;;;;;12.80;99.90;;;;;;5056767;28;19909;-73
2023/09/27 06:26:38;;;;;;;;;;;12.90;99.90;;;;;;5056353;28;19938;-73
2023/09/27 06:29:03;;;;;;;;;;;12.90;99.90;;;;;;5056644;28;20447;-73
2023/09/27 06:31:29;;;;;;;;;;;12.90;99.90;;;;;;5056601;28;20307;-73
2023/09/27 06:33:54;;;;;;;;;;;13.00;99.90;;;;;;5056736;28;19915;-73
2023/09/27 06:36:21;;;;;;;;;;;13.00;99.90;;;;;;5056269;28;20016;-73
2023/09/27 06:38:47;;;;;;;;;;;13.10;99.90;;;;;;5055119;28;19908;-73
2023/09/27 06:41:15;;;;;;;;;;;13.20;99.90;;;;;;5054777;28;19931;-73
2023/09/27 06:43:41;;;;;;;;;;;13.20;99.90;;;;;;5056374;28;19919;-73
2023/09/27 06:46:10;;;;;;;;;;;13.30;99.90;;;;;;5056300;28;19995;-73
2023/09/27 06:48:36;;;;;;;;;;;13.40;99.90;;;;;;5056347;28;19913;-73
2023/09/27 06:51:01;;;;;;;;;;;13.40;99.90;;;;;;5056155;28;19913;-73
2023/09/27 06:53:27;;;;;;;;;;;13.50;99.90;;;;;;5054865;28;19936;-73
2023/09/27 06:55:53;;;;;;;;;;;13.60;99.90;;;;;;5056118;28;20026;-73
2023/09/27 06:58:23;;;;;;;;;;;13.70;99.90;;;;;;5076327;28;19913;-73
2023/09/27 07:00:49;;;;;;;;;;;13.80;99.90;;;;;;5055531;28;19913;-73
2023/09/27 07:03:15;;;;;;;;;;;13.90;99.90;;;;;;5056252;28;19975;-73
2023/09/27 07:05:41;;;;;;;;;;;14.00;99.90;;;;;;5055951;28;19909;-73
2023/09/27 07:08:06;;;;;;;;;;;14.10;99.90;;;;;;5054856;28;19913;-73
2023/09/27 07:10:32;;;;;;;;;;;14.30;99.90;;;;;;5054485;28;20365;-73
2023/09/27 07:12:57;;;;;;;;;;;14.40;99.90;;;;;;5056023;28;20435;-73
2023/09/27 07:15:23;;;;;;;;;;;14.50;99.90;;;;;;5055962;28;20071;-73
2023/09/27 07:17:49;;;;;;;;;;;14.70;99.90;;;;;;5057871;28;20134;-73
2023/09/27 07:20:24;;;;;;;;;;;14.80;99.90;;;;;;5058506;28;19913;-73
2023/09/27 07:22:58;;;;;;;;;;;14.90;99.90;;;;;;5060309;28;19909;-73
2023/09/27 07:25:24;;;;;;;;;;;15.10;99.90;;;;;;5059875;28;19909;-73
2023/09/27 07:27:51;;;;;;;;;;;15.30;99.90;;;;;;5059861;28;19929;-73
2023/09/27 07:30:18;;;;;;;;;;;15.40;99.90;;;;;;5060081;28;19913;-73
2023/09/27 07:32:47;;;;;;;;;;;15.60;99.90;;;;;;5059838;28;19999;-73
2023/09/27 07:35:14;;;;;;;;;;;15.60;99.90;;;;;;5059788;28;19923;-73
2023/09/27 07:37:40;;;;;;;;;;;15.80;99.90;;;;;;5058449;28;19913;-73
2023/09/27 07:40:11;;;;;;;;;;;15.90;99.90;;;;;;5058318;28;19913;-73
2023/09/27 07:42:37;;;;;;;;;;;16.10;99.90;;;;;;5058175;28;20003;-73
2023/09/27 07:45:05;;;;;;;;;;;16.30;99.90;;;;;;5059682;28;19948;-73
2023/09/27 07:47:33;;;;;;;;;;;16.40;99.90;;;;;;5059666;28;19919;-73
2023/09/27 07:49:59;;;;;;;;;;;16.60;99.90;;;;;;5059604;28;20430;-73
2023/09/27 07:52:25;;;;;;;;;;;16.70;99.90;;;;;;5059542;28;19920;-73
2023/09/27 07:54:51;;;;;;;;;;;16.90;99.90;;;;;;5059416;28;19908;-73
2023/09/27 07:57:17;;;;;;;;;;;17.00;99.90;;;;;;5059318;28;19958;-73
2023/09/27 07:59:43;;;;;;;;;;;17.10;99.90;;;;;;5059483;28;19912;-73
2023/09/27 08:02:09;;;;;;;;;;;17.20;99.90;;;;;;5059424;28;20069;-73
2023/09/27 08:04:38;;;;;;;;;;;17.30;99.90;;;;;;5059592;28;19927;-73
2023/09/27 08:07:04;;;;;;;;;;;17.50;99.90;;;;;;5059274;28;19956;-73
2023/09/27 08:09:30;;;;;;;;;;;17.70;99.90;;;;;;5059554;28;19916;-73
2023/09/27 08:11:55;;;;;;;;;;;17.90;99.90;;;;;;5059071;28;19962;-73
2023/09/27 08:14:21;;;;;;;;;;;18.10;99.90;;;;;;5059311;28;19920;-73
2023/09/27 08:16:47;;;;;;;;;;;18.30;99.90;;;;;;5059001;28;19924;-74
2023/09/27 08:19:12;;;;;;;;;;;18.40;99.90;;;;;;5059156;28;19956;-73
2023/09/27 08:21:38;;;;;;;;;;;18.50;99.90;;;;;;5058803;28;19952;-73
2023/09/27 08:24:03;;;;;;;;;;;18.60;99.90;;;;;;5057726;28;19963;-73
2023/09/27 08:26:29;;;;;;;;;;;18.80;99.90;;;;;;5058617;28;20011;-72
2023/09/27 08:28:54;;;;;;;;;;;18.90;99.90;;;;;;5058662;28;19916;-72
2023/09/27 08:31:20;;;;;;;;;;;19.10;99.90;;;;;;5077412;28;19916;-72
2023/09/27 08:33:45;;;;;;;;;;;19.20;99.90;;;;;;5058790;28;19916;-73
2023/09/27 08:36:12;;;;;;;;;;;19.40;99.90;;;;;;5058508;28;20066;-73
2023/09/27 08:38:38;;;;;;;;;;;19.60;99.90;;;;;;5058703;28;19947;-73
2023/09/27 08:41:06;;;;;;;;;;;19.70;99.90;;;;;;5058506;28;20054;-73
2023/09/27 08:43:32;;;;;;;;;;;20.00;99.90;;;;;;5058489;28;20286;-73
2023/09/27 08:45:58;;;;;;;;;;;20.00;99.90;;;;;;5058566;28;19912;-73
2023/09/27 08:48:24;;;;;;;;;;;20.30;99.90;;;;;;5058538;28;20003;-72
2023/09/27 08:50:50;;;;;;;;;;;20.50;99.90;;;;;;5057015;28;19924;-73
2023/09/27 08:53:16;;;;;;;;;;;20.60;99.90;;;;;;5058457;28;19909;-73
2023/09/27 08:55:50;;;;;;;;;;;20.80;99.90;;;;;;5058043;28;20335;-74
2023/09/27 08:58:18;;;;;;;;;;;21.10;99.90;;;;;;5058447;28;19908;-74
2023/09/27 09:00:43;;;;;;;;;;;21.30;99.90;;;;;;5058315;28;19912;-73
2023/09/27 09:03:10;;;;;;;;;;;21.40;99.90;;;;;;5058366;28;20395;-73
2023/09/27 09:05:37;;;;;;;;;;;21.60;99.90;;;;;;5056768;28;19913;-73
2023/09/27 09:08:04;;;;;;;;;;;21.60;99.90;;;;;;5058184;28;19908;-73
2023/09/27 09:10:29;;;;;;;;;;;21.70;99.90;;;;;;5056527;28;20452;-73
2023/09/27 09:12:55;;;;;;;;;;;21.80;99.90;;;;;;5058057;28;19944;-73
2023/09/27 09:15:51;;;;;;;;;;;22.00;99.90;;;;;;5057980;28;19916;-73
2023/09/27 09:18:31;;;;;;;;;;;22.00;99.90;;;;;;5035505;28;19917;-72
2023/09/27 09:20:59;;;;;;;;;;;22.20;99.90;;;;;;5057784;28;19913;-73
2023/09/27 09:23:33;;;;;;;;;;;22.30;99.90;;;;;;5057950;28;19912;-74
2023/09/27 09:25:59;;;;;;;;;;;22.40;99.90;;;;;;5057624;28;20547;-73
2023/09/27 09:28:27;;;;;;;;;;;22.50;99.90;;;;;;5057526;28;19947;-73
2023/09/27 09:30:56;;;;;;;;;;;22.60;99.90;;;;;;5056376;28;19909;-74
2023/09/27 09:33:36;;;;;;;;;;;22.70;99.90;;;;;;5057769;28;20003;-73
2023/09/27 09:36:02;;;;;;;;;;;22.70;99.90;;;;;;5057447;28;20010;-74
2023/09/27 09:38:31;;;;;;;;;;;22.90;99.90;;;;;;5057653;28;19909;-73
2023/09/27 09:40:58;;;;;;;;;;;23.00;99.90;;;;;;5056578;28;19913;-73
2023/09/27 09:43:29;;;;;;;;;;;23.10;99.90;;;;;;5057460;28;19909;-71
2023/09/27 09:45:55;;;;;;;;;;;23.10;99.90;;;;;;5072300;28;20000;-73
2023/09/27 09:48:23;;;;;;;;;;;23.10;99.90;;;;;;5057431;28;19944;-73
2023/09/27 09:50:49;;;;;;;;;;;23.20;99.90;;;;;;5075904;28;19996;-73
2023/09/27 09:53:16;;;;;;;;;;;23.40;99.90;;;;;;5057399;28;19913;-74
2023/09/27 09:55:42;;;;;;;;;;;23.50;99.90;;;;;;5056977;28;19920;-73
2023/09/27 09:58:17;;;;;;;;;;;23.50;99.90;;;;;;5055944;28;19962;-73
2023/09/27 10:00:49;;;;;;;;;;;23.60;99.90;;;;;;5057173;28;19913;-73
2023/09/27 10:03:19;;;;;;;;;;;23.70;99.90;;;;;;5057238;28;19912;-73
2023/09/27 10:05:45;;;;;;;;;;;23.90;99.90;;;;;;5056883;28;19913;-73
2023/09/27 10:08:12;;;;;;;;;;;24.00;99.90;;;;;;5057033;28;20070;-73
2023/09/27 10:10:37;;;;;;;;;;;24.10;99.90;;;;;;5056808;28;19915;-74
2023/09/27 10:13:05;;;;;;;;;;;24.20;99.90;;;;;;5055648;28;19913;-74
2023/09/27 10:15:34;;;;;;;;;;;24.40;99.90;;;;;;5056782;28;20464;-73
2023/09/27 10:18:18;;;;;;;;;;;24.40;99.90;;;;;;5056936;28;19913;-73
2023/09/27 10:21:00;;;;;;;;;;;24.50;99.90;;;;;;5056506;28;19960;-73
2023/09/27 10:23:26;;;;;;;;;;;24.50;99.90;;;;;;5056677;28;19909;-74
2023/09/27 10:25:52;;;;;;;;;;;24.50;99.90;;;;;;5056564;28;19955;-73
2023/09/27 10:28:17;;;;;;;;;;;24.50;99.90;;;;;;5056489;28;19967;-73
2023/09/27 10:30:45;;;;;;;;;;;24.60;99.90;;;;;;5056584;28;19913;-74
2023/09/27 10:33:14;;;;;;;;;;;24.70;99.90;;;;;;5055194;28;19912;-73
2023/09/27 10:35:40;;;;;;;;;;;24.70;99.90;;;;;;5056355;28;19917;-73
2023/09/27 10:38:09;;;;;;;;;;;24.80;99.90;;;;;;5056454;28;20410;-73
2023/09/27 10:40:42;;;;;;;;;;;24.80;99.90;;;;;;5075778;28;19963;-73
2023/09/27 10:43:07;;;;;;;;;;;24.90;99.90;;;;;;5043269;28;19916;-73
2023/09/27 10:45:33;;;;;;;;;;;24.90;99.90;;;;;;5056597;28;20581;-74
2023/09/27 10:48:18;;;;;;;;;;;25.00;99.90;;;;;;5055027;28;19913;-73
2023/09/27 10:50:55;;;;;;;;;;;25.10;99.90;;;;;;5054795;28;19917;-74
2023/09/27 10:53:21;;;;;;;;;;;25.20;99.90;;;;;;5056302;28;19912;-73
2023/09/27 10:55:47;;;;;;;;;;;25.30;99.90;;;;;;5070523;28;20001;-73
2023/09/27 10:58:15;;;;;;;;;;;25.30;99.90;;;;;;5047321;28;20388;-73
2023/09/27 11:00:51;;;;;;;;;;;25.30;99.90;;;;;;5054745;28;19909;-73
2023/09/27 11:03:17;;;;;;;;;;;25.40;99.90;;;;;;5056194;28;19912;-74
2023/09/27 11:05:42;;;;;;;;;;;25.50;99.90;;;;;;5054602;28;20339;-74
2023/09/27 11:08:08;;;;;;;;;;;25.60;99.90;;;;;;5056133;28;19909;-73
2023/09/27 11:10:34;;;;;;;;;;;25.60;99.90;;;;;;5055806;28;19909;-74
2023/09/27 11:13:07;;;;;;;;;;;25.80;99.90;;;;;;5056151;28;19940;-73
2023/09/27 11:15:32;;;;;;;;;;;25.90;99.90;;;;;;5055988;28;19913;-74
2023/09/27 11:17:58;;;;;;;;;;;26.20;99.90;;;;;;5056029;28;19915;-74
2023/09/27 11:20:23;;;;;;;;;;;26.30;99.90;;;;;;5054438;28;19944;-74
2023/09/27 11:22:55;;;;;;;;;;;26.30;99.90;;;;;;5055933;28;20007;-73
2023/09/27 11:25:32;;;;;;;;;;;26.30;99.90;;;;;;5054571;28;19909;-73
2023/09/27 11:27:58;;;;;;;;;;;26.30;99.90;;;;;;5055768;28;19931;-72
2023/09/27 11:30:24;;;;;;;;;;;26.40;99.90;;;;;;5055814;28;19909;-72
2023/09/27 11:32:50;;;;;;;;;;;26.30;99.90;;;;;;5054632;28;19917;-73
2023/09/27 11:35:18;;;;;;;;;;;26.30;99.90;;;;;;5079344;28;19924;-74
2023/09/27 11:37:44;;;;;;;;;;;26.30;99.90;;;;;;5051663;28;19909;-73
2023/09/27 11:40:10;;;;;;;;;;;26.40;99.90;;;;;;5055623;28;19909;-72
2023/09/27 11:42:35;;;;;;;;;;;26.40;99.90;;;;;;5054380;28;20594;-71
2023/09/27 11:45:05;;;;;;;;;;;26.50;99.90;;;;;;5087868;28;19912;-72
2023/09/27 11:47:32;;;;;;;;;;;26.80;98.10;;;;;;5055642;28;19913;-72
2023/09/27 11:49:57;;;;;;;;;;;26.80;97.30;;;;;;5055541;28;19908;-72
2023/09/27 11:52:23;;;;;;;;;;;26.90;96.90;;;;;;5055685;28;19935;-71
2023/09/27 11:54:49;;;;;;;;;;;26.80;96.60;;;;;;5055591;28;19956;-70
2023/09/27 11:57:14;;;;;;;;;;;26.90;96.40;;;;;;5053896;28;19908;-72
2023/09/27 11:59:40;;;;;;;;;;;27.00;97.20;;;;;;5055592;28;19920;-73
2023/09/27 12:02:07;;;;;;;;;;;27.00;96.60;;;;;;5054216;28;20706;-72
2023/09/27 12:04:33;;;;;;;;;;;27.10;95.90;;;;;;5056940;28;20397;-72
2023/09/27 12:06:58;;;;;;;;;;;27.20;94.70;;;;;;5059113;28;19936;-72
2023/09/27 12:09:24;;;;;;;;;;;27.20;96.00;;;;;;5059359;28;19913;-73
2023/09/27 12:11:49;;;;;;;;;;;27.10;96.30;;;;;;5058988;28;19917;-72
2023/09/27 12:14:15;;;;;;;;;;;27.10;95.60;;;;;;5059315;28;19909;-72
2023/09/27 12:16:41;;;;;;;;;;;27.20;96.40;;;;;;5059015;28;19913;-72
2023/09/27 12:19:07;;;;;;;;;;;27.30;96.80;;;;;;5057800;28;19916;-72
2023/09/27 12:21:34;;;;;;;;;;;27.40;94.50;;;;;;5058791;28;19934;-72
2023/09/27 12:24:01;;;;;;;;;;;27.50;95.50;;;;;;5059063;28;19952;-72
2023/09/27 12:26:28;;;;;;;;;;;27.50;94.20;;;;;;5057255;28;19972;-71
2023/09/27 12:28:54;;;;;;;;;;;27.50;94.00;;;;;;5057562;28;19921;-72
2023/09/27 12:31:20;;;;;;;;;;;27.50;93.70;;;;;;5057506;28;19999;-72
2023/09/27 12:33:45;;;;;;;;;;;27.50;94.50;;;;;;5058893;28;19916;-72
2023/09/27 12:36:11;;;;;;;;;;;27.50;94.20;;;;;;5058525;28;19919;-72
2023/09/27 12:38:36;;;;;;;;;;;27.60;94.00;;;;;;5057348;28;20398;-72
2023/09/27 12:41:03;;;;;;;;;;;27.60;94.60;;;;;;5077032;28;19978;-72
2023/09/27 12:43:29;;;;;;;;;;;27.70;93.90;;;;;;5058598;28;19980;-72
2023/09/27 12:45:55;;;;;;;;;;;27.80;93.90;;;;;;5058579;28;20396;-72
2023/09/27 12:48:20;;;;;;;;;;;27.90;92.50;;;;;;5058591;28;19909;-72
2023/09/27 12:50:46;;;;;;;;;;;27.90;93.00;;;;;;5058415;28;19974;-73
2023/09/27 12:53:12;;;;;;;;;;;27.90;93.10;;;;;;5057068;28;20396;-73
2023/09/27 12:55:42;;;;;;;;;;;27.80;94.00;;;;;;5077021;28;19939;-73
2023/09/27 12:58:07;;;;;;;;;;;27.80;92.40;;;;;;5058428;28;20444;-73
2023/09/27 13:00:35;;;;;;;;;;;27.80;92.40;;;;;;5058288;28;20014;-72
2023/09/27 13:03:01;;;;;;;;;;;27.80;93.50;;;;;;5058269;28;19920;-73
2023/09/27 13:05:26;;;;;;;;;;;27.80;92.40;;;;;;5058088;28;19909;-73
2023/09/27 13:07:52;;;;;;;;;;;27.90;93.50;;;;;;5058223;28;20499;-73
2023/09/27 13:10:18;;;;;;;;;;;27.90;93.30;;;;;;5057996;28;20285;-72
2023/09/27 13:12:44;;;;;;;;;;;27.80;93.50;;;;;;5056772;28;19995;-73
2023/09/27 13:15:09;;;;;;;;;;;27.60;93.90;;;;;;5056915;28;19960;-73
2023/09/27 13:17:35;;;;;;;;;;;27.60;94.20;;;;;;5057999;28;19913;-72
2023/09/27 13:20:00;;;;;;;;;;;27.60;93.20;;;;;;5057787;28;19916;-72
2023/09/27 13:22:26;;;;;;;;;;;27.80;93.10;;;;;;5058123;28;19909;-72
2023/09/27 13:24:51;;;;;;;;;;;27.80;92.80;;;;;;5056614;28;19909;-72
2023/09/27 13:27:17;;;;;;;;;;;27.80;93.00;;;;;;5056074;28;19921;-72
2023/09/27 13:29:43;;;;;;;;;;;27.80;92.80;;;;;;5057750;28;19919;-73
2023/09/27 13:32:09;;;;;;;;;;;28.00;92.50;;;;;;5056472;28;19915;-72
2023/09/27 13:34:34;;;;;;;;;;;28.10;92.10;;;;;;5057727;28;19957;-72
2023/09/27 13:37:00;;;;;;;;;;;28.00;93.30;;;;;;5089578;28;19927;-73
2023/09/27 13:39:32;;;;;;;;;;;28.00;93.00;;;;;;5055561;28;21433;-72
2023/09/27 13:41:57;;;;;;;;;;;28.10;92.50;;;;;;5078989;28;19909;-72
2023/09/27 13:44:23;;;;;;;;;;;28.20;91.90;;;;;;5054464;28;19909;-72
2023/09/27 13:46:49;;;;;;;;;;;28.20;92.70;;;;;;5057439;28;19909;-72
2023/09/27 13:49:15;;;;;;;;;;;28.20;91.50;;;;;;5057372;28;19939;-72
2023/09/27 13:51:40;;;;;;;;;;;28.30;91.80;;;;;;5055860;28;19932;-73
2023/09/27 13:54:11;;;;;;;;;;;28.30;92.20;;;;;;5055908;28;19916;-73
2023/09/27 13:56:37;;;;;;;;;;;28.40;91.60;;;;;;5057275;28;19924;-73
2023/09/27 13:59:03;;;;;;;;;;;28.40;91.30;;;;;;5055827;28;19909;-72
2023/09/27 14:01:30;;;;;;;;;;;28.40;90.80;;;;;;5057162;28;19959;-72
2023/09/27 14:03:58;;;;;;;;;;;28.50;91.20;;;;;;5071021;28;20399;-73
2023/09/27 14:06:24;;;;;;;;;;;28.40;90.80;;;;;;5048565;28;19916;-74
2023/09/27 14:08:49;;;;;;;;;;;28.50;91.30;;;;;;5056971;28;19913;-73
2023/09/27 14:11:16;;;;;;;;;;;28.50;91.40;;;;;;5056853;28;20434;-73
2023/09/27 14:13:43;;;;;;;;;;;28.40;93.00;;;;;;5055514;28;19912;-73